Time;durP1;ratioP1;P1;durP2;ratioP2;P2;SDS_P1;SDS_P2;PMS_P1;PMS_P2;Temp;Humidity;BMP_temperature;BMP_pressure;BME280_temperature;BME280_humidity;BME280_pressure;Samples;Min_cycle;Max_cycle;Signal;HPM_P1;HPM_P2
2023/05/24 00:01:28;;;;;;;9.82;3.58;;;12.00;99.90;;;;;;5103944;28;20196;-80
2023/05/24 00:03:57;;;;;;;8.80;2.60;;;12.10;99.90;;;;;;5114790;28;20203;-80
2023/05/24 00:06:26;;;;;;;9.18;2.70;;;12.10;99.90;;;;;;5112453;28;20219;-80
2023/05/24 00:08:54;;;;;;;7.55;2.50;;;12.30;99.90;;;;;;5104645;28;20227;-80
2023/05/24 00:11:22;;;;;;;6.88;2.63;;;12.20;99.90;;;;;;5103526;28;20212;-80
2023/05/24 00:13:49;;;;;;;5.05;2.50;;;12.30;99.90;;;;;;5104891;28;20220;-80
2023/05/24 00:16:17;;;;;;;8.38;2.65;;;12.20;99.90;;;;;;5108481;28;20204;-80
2023/05/24 00:18:45;;;;;;;5.88;1.98;;;12.10;99.90;;;;;;5112249;28;20219;-80
2023/05/24 00:21:13;;;;;;;6.90;2.78;;;12.00;99.90;;;;;;5110077;28;20207;-80
2023/05/24 00:23:42;;;;;;;8.45;2.33;;;11.80;99.90;;;;;;5110461;28;20192;-80
2023/05/24 00:26:10;;;;;;;6.80;2.33;;;11.60;99.90;;;;;;5110121;28;20211;-80
2023/05/24 00:28:40;;;;;;;8.50;2.90;;;11.30;99.90;;;;;;5102485;28;20555;-80
2023/05/24 00:31:08;;;;;;;7.00;2.20;;;10.90;99.90;;;;;;5103444;28;20201;-80
2023/05/24 00:33:35;;;;;;;4.45;2.30;;;10.80;99.90;;;;;;5103570;28;20193;-80
2023/05/24 00:36:03;;;;;;;7.30;2.28;;;10.80;99.90;;;;;;5113943;28;20219;-80
2023/05/24 00:38:30;;;;;;;7.72;2.67;;;10.80;99.90;;;;;;5105578;28;20211;-79
2023/05/24 00:41:00;;;;;;;7.15;2.65;;;10.80;99.90;;;;;;5108108;28;20197;-79
2023/05/24 00:43:27;;;;;;;8.20;2.30;;;10.60;99.90;;;;;;5102371;28;20215;-79
2023/05/24 00:46:14;;;;;;;6.20;2.10;;;10.50;99.90;;;;;;5104577;28;20203;-79
2023/05/24 00:48:42;;;;;;;7.00;2.23;;;10.00;99.90;;;;;;5106028;28;20216;-79
2023/05/24 00:51:10;;;;;;;8.13;2.72;;;10.10;99.90;;;;;;5102385;28;20203;-79
2023/05/24 00:53:38;;;;;;;6.00;2.13;;;10.20;99.90;;;;;;5099031;28;20672;-79
2023/05/24 00:56:08;;;;;;;12.37;3.43;;;10.20;99.90;;;;;;5108074;28;20223;-79
2023/05/24 00:58:36;;;;;;;7.73;2.60;;;10.00;99.90;;;;;;5101069;28;20212;-79
2023/05/24 01:01:03;;;;;;;7.47;2.90;;;10.10;99.90;;;;;;5105447;28;20200;-79
2023/05/24 01:03:32;;;;;;;4.27;2.47;;;10.10;99.90;;;;;;5116096;28;20203;-79
2023/05/24 01:06:01;;;;;;;7.83;2.87;;;10.10;99.90;;;;;;5108212;28;20199;-79
2023/05/24 01:08:48;;;;;;;6.37;2.63;;;9.90;99.90;;;;;;5102266;28;20223;-79
2023/05/24 01:11:29;;;;;;;7.17;2.30;;;9.80;99.90;;;;;;5109400;27;20204;-79
2023/05/24 01:14:04;;;;;;;10.10;3.03;;;10.00;99.90;;;;;;5105724;28;20214;-79
2023/05/24 01:16:45;;;;;;;5.97;2.23;;;9.80;99.90;;;;;;5122321;27;20211;-79
2023/05/24 01:19:42;;;;;;;6.43;2.73;;;9.90;99.90;;;;;;5107561;28;20223;-79
2023/05/24 01:22:23;;;;;;;6.87;2.43;;;9.60;99.90;;;;;;5113096;28;20556;-79
2023/05/24 01:24:58;;;;;;;4.37;2.47;;;9.70;99.90;;;;;;5104606;28;20188;-79
2023/05/24 01:27:28;;;;;;;8.43;2.93;;;9.70;99.90;;;;;;5099992;28;20201;-79
2023/05/24 01:29:59;;;;;;;6.67;2.03;;;9.70;99.90;;;;;;5102457;28;20220;-80
2023/05/24 01:32:28;;;;;;;7.80;2.80;;;9.60;99.90;;;;;;5106125;28;20193;-80
2023/05/24 01:34:55;;;;;;;5.23;2.50;;;9.50;99.90;;;;;;5107357;28;20221;-79
2023/05/24 01:37:23;;;;;;;6.83;2.77;;;9.50;99.90;;;;;;5102324;28;20196;-79
2023/05/24 01:39:50;;;;;;;8.53;2.97;;;9.50;99.90;;;;;;5109934;28;20216;-79
2023/05/24 01:42:25;;;;;;;6.17;2.17;;;9.70;99.90;;;;;;5104201;28;20193;-79
2023/05/24 01:45:04;;;;;;;7.37;2.37;;;9.90;99.90;;;;;;5106737;28;20184;-79
2023/05/24 01:47:45;;;;;;;7.07;2.00;;;9.90;99.90;;;;;;5110444;28;20188;-79
2023/05/24 01:50:20;;;;;;;7.20;2.87;;;9.80;99.90;;;;;;5101334;28;20217;-79
2023/05/24 01:52:51;;;;;;;6.47;2.70;;;9.50;99.90;;;;;;5103105;28;20204;-79
2023/05/24 01:55:19;;;;;;;6.77;2.50;;;9.50;99.90;;;;;;5105800;28;20571;-79
2023/05/24 01:57:50;;;;;;;5.73;2.70;;;9.40;99.90;;;;;;5102805;28;20208;-79
2023/05/24 02:00:21;;;;;;;7.73;2.27;;;9.10;99.90;;;;;;5099977;28;20208;-80
2023/05/24 02:02:48;;;;;;;6.63;2.63;;;9.10;99.90;;;;;;5108878;28;20542;-80
2023/05/24 02:05:18;;;;;;;5.73;2.23;;;9.20;99.90;;;;;;5106612;28;20207;-80
2023/05/24 02:07:45;;;;;;;6.53;2.50;;;9.10;99.90;;;;;;5104994;28;20200;-80
2023/05/24 02:10:12;;;;;;;7.57;2.57;;;9.20;99.90;;;;;;5110897;28;20207;-80
2023/05/24 02:12:40;;;;;;;7.53;2.53;;;9.10;99.90;;;;;;5105706;28;20196;-80
2023/05/24 02:15:09;;;;;;;7.03;2.33;;;9.20;99.90;;;;;;5104100;28;20217;-80
2023/05/24 02:17:39;;;;;;;5.50;2.33;;;9.20;99.90;;;;;;5102511;28;20201;-80
2023/05/24 02:20:08;;;;;;;8.77;3.03;;;8.90;99.90;;;;;;5102140;28;20212;-79
2023/05/24 02:22:35;;;;;;;5.43;2.63;;;8.90;99.90;;;;;;5108838;28;20196;-79
2023/05/24 02:25:03;;;;;;;6.40;2.73;;;8.90;99.90;;;;;;5106506;28;20211;-79
2023/05/24 02:27:31;;;;;;;6.63;2.80;;;8.80;99.90;;;;;;5106852;28;20688;-79
2023/05/24 02:29:58;;;;;;;8.50;3.13;;;8.80;99.90;;;;;;5108421;28;20217;-79
2023/05/24 02:32:25;;;;;;;10.33;2.70;;;9.20;99.90;;;;;;5105774;28;20291;-79
2023/05/24 02:34:54;;;;;;;6.93;2.27;;;9.40;99.90;;;;;;5104424;28;20204;-79
2023/05/24 02:37:22;;;;;;;7.10;2.57;;;9.40;99.90;;;;;;5102855;28;20201;-79
2023/05/24 02:39:49;;;;;;;8.30;2.77;;;9.00;99.90;;;;;;5106960;28;20212;-79
2023/05/24 02:42:17;;;;;;;7.83;2.90;;;9.00;99.90;;;;;;5109496;28;20211;-79
2023/05/24 02:44:46;;;;;;;10.70;3.27;;;9.10;99.90;;;;;;5105245;28;20204;-79
2023/05/24 02:47:14;;;;;;;7.73;3.13;;;9.20;99.90;;;;;;5103446;28;20662;-79
2023/05/24 02:49:41;;;;;;;5.10;2.57;;;9.20;99.90;;;;;;5102110;28;20430;-79
2023/05/24 02:52:10;;;;;;;6.27;2.27;;;9.40;99.90;;;;;;5102205;28;20204;-79
2023/05/24 02:54:38;;;;;;;5.73;1.90;;;9.40;99.90;;;;;;5109033;28;20196;-79
2023/05/24 02:57:06;;;;;;;5.10;2.33;;;9.40;99.90;;;;;;5101874;28;20223;-79
2023/05/24 02:59:35;;;;;;;6.70;2.77;;;9.40;99.90;;;;;;5103642;28;20212;-79
2023/05/24 03:02:02;;;;;;;9.90;3.07;;;9.30;99.90;;;;;;5112471;28;20203;-79
2023/05/24 03:04:30;;;;;;;7.00;3.10;;;9.10;99.90;;;;;;5107957;28;20216;-79
2023/05/24 03:06:57;;;;;;;5.80;2.67;;;9.20;99.90;;;;;;5112211;28;20201;-79
2023/05/24 03:09:26;;;;;;;5.97;2.70;;;9.20;99.90;;;;;;5103334;28;20232;-79
2023/05/24 03:11:54;;;;;;;9.60;3.17;;;9.10;99.90;;;;;;5111701;28;20196;-79
2023/05/24 03:14:25;;;;;;;7.00;3.00;;;9.20;99.90;;;;;;5104093;28;20193;-79
2023/05/24 03:16:53;;;;;;;5.13;3.20;;;8.80;99.90;;;;;;5103820;28;20213;-79
2023/05/24 03:19:20;;;;;;;6.00;2.90;;;8.80;99.90;;;;;;5104650;28;20225;-79
2023/05/24 03:21:49;;;;;;;7.60;3.50;;;8.90;99.90;;;;;;5115698;28;20199;-79
2023/05/24 03:24:16;;;;;;;6.33;3.00;;;9.00;99.90;;;;;;5111849;28;20204;-79
2023/05/24 03:26:45;;;;;;;8.97;3.13;;;9.00;99.90;;;;;;5098366;28;20615;-79
2023/05/24 03:29:13;;;;;;;6.87;3.73;;;9.10;99.90;;;;;;5108586;28;20220;-79
2023/05/24 03:31:42;;;;;;;8.27;3.33;;;9.20;99.90;;;;;;5111578;28;20195;-79
2023/05/24 03:34:10;;;;;;;10.03;3.10;;;9.10;99.90;;;;;;5108500;28;20208;-79
2023/05/24 03:36:39;;;;;;;11.23;3.57;;;8.90;99.90;;;;;;5110275;28;20204;-79
2023/05/24 03:39:06;;;;;;;12.63;3.33;;;9.00;99.90;;;;;;5109964;28;20221;-79
2023/05/24 03:41:49;;;;;;;4.53;2.70;;;8.80;99.90;;;;;;5107047;28;20199;-80
2023/05/24 03:44:16;;;;;;;8.13;2.87;;;8.80;99.90;;;;;;5102634;28;20200;-80
2023/05/24 03:46:43;;;;;;;5.23;3.03;;;8.70;99.90;;;;;;5107242;28;20185;-79
2023/05/24 03:49:11;;;;;;;8.30;3.67;;;8.70;99.90;;;;;;5107718;28;20224;-79
2023/05/24 03:51:39;;;;;;;8.37;3.10;;;8.50;99.90;;;;;;5104940;28;20427;-79
2023/05/24 03:54:06;;;;;;;5.47;3.90;;;8.50;99.90;;;;;;5114784;28;20555;-79
2023/05/24 03:56:34;;;;;;;8.43;3.40;;;8.30;99.90;;;;;;5111034;28;20239;-79
2023/05/24 03:59:03;;;;;;;9.63;3.43;;;8.30;99.90;;;;;;5111367;27;20232;-79
2023/05/24 04:01:31;;;;;;;9.73;3.40;;;8.10;99.90;;;;;;5111503;28;20200;-83
2023/05/24 04:04:00;;;;;;;7.00;3.73;;;8.20;99.90;;;;;;5110314;28;20204;-82
2023/05/24 04:06:28;;;;;;;10.33;3.77;;;8.30;99.90;;;;;;5116675;28;20199;-82
2023/05/24 04:08:56;;;;;;;7.40;3.60;;;8.30;99.90;;;;;;5101165;28;20217;-82
2023/05/24 04:11:27;;;;;;;5.83;3.73;;;8.50;99.90;;;;;;5119859;27;20189;-82
2023/05/24 04:13:55;;;;;;;8.77;4.00;;;8.60;99.90;;;;;;5108675;28;20197;-82
2023/05/24 04:16:25;;;;;;;7.37;4.27;;;8.30;99.90;;;;;;5103094;28;20701;-82
2023/05/24 04:18:52;;;;;;;6.97;3.13;;;8.60;99.90;;;;;;5105829;28;20219;-82
2023/05/24 04:21:20;;;;;;;11.17;3.60;;;8.60;99.90;;;;;;5105839;28;20204;-82
2023/05/24 04:23:47;;;;;;;10.37;3.90;;;8.70;99.90;;;;;;5111761;28;20203;-82
2023/05/24 04:26:16;;;;;;;7.17;3.97;;;8.80;99.90;;;;;;5114330;27;20197;-82
2023/05/24 04:28:44;;;;;;;9.60;3.97;;;9.20;99.90;;;;;;5102398;28;20208;-82
2023/05/24 04:31:11;;;;;;;7.37;3.60;;;9.30;99.90;;;;;;5115420;28;20195;-82
2023/05/24 04:33:42;;;;;;;11.00;3.80;;;9.30;99.90;;;;;;5115312;28;20192;-82
2023/05/24 04:36:10;;;;;;;9.47;3.47;;;9.20;99.90;;;;;;5113472;27;20215;-82
2023/05/24 04:38:39;;;;;;;7.07;3.43;;;9.30;99.90;;;;;;5111561;28;20209;-83
2023/05/24 04:41:08;;;;;;;6.77;3.57;;;9.40;99.90;;;;;;5110986;28;20200;-83
2023/05/24 04:43:35;;;;;;;8.63;3.57;;;9.60;99.90;;;;;;5109389;28;20589;-83
2023/05/24 04:46:03;;;;;;;9.53;3.90;;;9.50;99.90;;;;;;5110209;28;20200;-82
2023/05/24 04:48:30;;;;;;;7.87;3.83;;;9.60;99.90;;;;;;5114452;28;20223;-83
2023/05/24 04:50:59;;;;;;;7.73;4.00;;;9.70;99.90;;;;;;5119778;28;20204;-83
2023/05/24 04:53:26;;;;;;;9.30;3.93;;;9.70;99.90;;;;;;5113507;28;20193;-81
2023/05/24 04:55:54;;;;;;;6.60;3.87;;;9.50;99.90;;;;;;5109854;28;20201;-86
2023/05/24 05:02:19;;;;;;;9.83;3.83;;;9.70;99.90;;;;;;5102243;28;20203;-82
2023/05/24 05:04:46;;;;;;;8.13;4.23;;;9.90;99.90;;;;;;5119443;28;20669;-83
2023/05/24 05:07:15;;;;;;;9.33;4.13;;;10.20;99.90;;;;;;5111540;28;20200;-85
2023/05/24 05:09:42;;;;;;;13.40;5.10;;;10.30;99.90;;;;;;5099427;28;20217;-82
2023/05/24 05:12:10;;;;;;;8.53;4.07;;;10.40;99.90;;;;;;5115329;28;20204;-85
2023/05/24 05:14:38;;;;;;;11.33;4.47;;;10.40;99.90;;;;;;5125263;27;20668;-81
2023/05/24 05:17:05;;;;;;;12.47;4.17;;;10.50;99.90;;;;;;5112690;27;20224;-81
2023/05/24 05:19:33;;;;;;;10.83;4.67;;;10.60;99.90;;;;;;5113017;28;20226;-81
2023/05/24 05:22:00;;;;;;;10.97;4.37;;;10.70;99.90;;;;;;5117027;27;20208;-81
2023/05/24 05:24:29;;;;;;;14.67;4.77;;;10.70;99.90;;;;;;5119462;28;20195;-81
2023/05/24 05:26:56;;;;;;;12.80;5.30;;;10.70;99.90;;;;;;5115849;28;20203;-81
2023/05/24 05:29:24;;;;;;;10.77;4.47;;;10.80;99.90;;;;;;5106286;28;20224;-82
2023/05/24 05:31:51;;;;;;;12.90;4.47;;;10.90;99.90;;;;;;5099706;28;20203;-82
2023/05/24 05:34:20;;;;;;;8.90;4.67;;;10.70;99.90;;;;;;5108323;28;20697;-81
2023/05/24 05:36:47;;;;;;;13.37;5.40;;;10.40;99.90;;;;;;5116468;28;20219;-82
2023/05/24 05:39:14;;;;;;;11.60;5.27;;;10.30;99.90;;;;;;5111032;28;20235;-82
2023/05/24 05:41:44;;;;;;;16.90;5.90;;;10.10;99.90;;;;;;5106480;28;20205;-83
2023/05/24 05:44:12;;;;;;;12.70;5.50;;;10.10;99.90;;;;;;5113715;28;20196;-83
2023/05/24 05:46:42;;;;;;;10.37;5.20;;;10.00;99.90;;;;;;5115048;28;20204;-82
2023/05/24 05:49:10;;;;;;;14.27;6.33;;;10.10;99.90;;;;;;5106921;28;20232;-83
2023/05/24 05:51:37;;;;;;;13.87;6.03;;;10.20;99.90;;;;;;5109149;28;20207;-81
2023/05/24 05:54:05;;;;;;;12.80;6.03;;;10.20;99.90;;;;;;5113645;28;20197;-82
2023/05/24 05:56:34;;;;;;;12.30;5.80;;;10.40;99.90;;;;;;5103649;28;20196;-81
2023/05/24 05:59:03;;;;;;;15.90;6.20;;;10.50;99.90;;;;;;5105432;28;20220;-84
2023/05/24 06:01:30;;;;;;;15.20;6.27;;;10.60;99.90;;;;;;5115638;28;20203;-84
2023/05/24 06:03:58;;;;;;;16.57;5.70;;;10.50;99.90;;;;;;5111450;28;20208;-84
2023/05/24 06:06:25;;;;;;;16.90;5.47;;;10.50;99.90;;;;;;5110064;28;20204;-84
2023/05/24 06:08:53;;;;;;;15.03;6.17;;;10.70;99.90;;;;;;5112265;28;20204;-84
2023/05/24 06:11:20;;;;;;;12.60;5.00;;;10.80;99.90;;;;;;5110407;28;20207;-84
2023/05/24 06:13:48;;;;;;;18.77;6.38;;;11.10;99.90;;;;;;5111252;28;20562;-84
2023/05/24 06:16:17;;;;;;;13.93;5.50;;;11.30;99.90;;;;;;5113241;28;20193;-84
2023/05/24 06:18:44;;;;;;;15.27;5.40;;;11.30;99.90;;;;;;5119172;28;20789;-84
2023/05/24 06:21:12;;;;;;;18.00;5.40;;;11.20;99.90;;;;;;5109955;28;20201;-85
2023/05/24 06:23:40;;;;;;;20.70;6.30;;;11.30;99.90;;;;;;5110968;28;20201;-84
2023/05/24 06:26:08;;;;;;;19.17;6.47;;;11.20;99.90;;;;;;5113053;28;20196;-84
2023/05/24 06:28:36;;;;;;;16.63;6.45;;;11.40;99.90;;;;;;5115073;28;20212;-84
2023/05/24 06:31:03;;;;;;;15.47;5.30;;;11.60;99.90;;;;;;5116444;28;20208;-83
2023/05/24 06:33:32;;;;;;;15.60;5.67;;;11.60;99.90;;;;;;5122717;28;20193;-85
2023/05/24 06:36:00;;;;;;;18.90;5.50;;;11.50;99.90;;;;;;5114593;28;20197;-84
2023/05/24 06:38:28;;;;;;;18.37;5.67;;;11.60;99.90;;;;;;5112925;28;20586;-84
2023/05/24 06:40:55;;;;;;;15.47;5.73;;;11.60;99.90;;;;;;5102596;28;20196;-84
2023/05/24 06:43:23;;;;;;;18.45;5.38;;;11.50;99.90;;;;;;5111255;28;20197;-84
2023/05/24 06:45:50;;;;;;;13.50;5.40;;;11.40;99.90;;;;;;5121516;28;20196;-84
2023/05/24 06:48:17;;;;;;;14.52;4.68;;;11.60;99.90;;;;;;5120799;28;20216;-84
2023/05/24 06:50:46;;;;;;;15.57;5.43;;;11.60;99.90;;;;;;5123201;28;20200;-83
2023/05/24 06:53:17;;;;;;;18.08;4.63;;;11.80;99.90;;;;;;5119854;27;20666;-83
2023/05/24 06:55:44;;;;;;;15.30;5.77;;;12.00;99.90;;;;;;5119541;28;20203;-84
2023/05/24 06:58:13;;;;;;;11.37;4.90;;;11.80;99.90;;;;;;5115307;28;20220;-83
2023/05/24 07:00:41;;;;;;;12.60;5.17;;;11.80;99.90;;;;;;5114865;28;20192;-84
2023/05/24 07:03:09;;;;;;;18.20;4.88;;;12.00;99.90;;;;;;5111378;28;20204;-83
2023/05/24 07:05:36;;;;;;;16.52;5.40;;;12.00;99.90;;;;;;5107395;28;20669;-84
2023/05/24 07:08:06;;;;;;;10.93;5.32;;;12.10;99.90;;;;;;5109953;28;20211;-84
2023/05/24 07:10:33;;;;;;;17.88;5.75;;;12.10;99.90;;;;;;5103539;28;20192;-83
2023/05/24 07:13:01;;;;;;;18.10;6.07;;;12.10;99.90;;;;;;5105190;28;20204;-84
2023/05/24 07:15:28;;;;;;;15.95;4.95;;;12.30;99.90;;;;;;5105692;28;20193;-83
2023/05/24 07:17:56;;;;;;;14.10;5.10;;;12.20;99.90;;;;;;5106107;28;20208;-84
2023/05/24 07:20:24;;;;;;;12.02;4.85;;;12.20;99.90;;;;;;5104591;28;20205;-84
2023/05/24 07:22:51;;;;;;;12.80;5.25;;;12.30;99.90;;;;;;5098400;28;20201;-84
2023/05/24 07:25:21;;;;;;;16.58;5.13;;;12.40;99.90;;;;;;5103403;28;20687;-84
2023/05/24 07:27:49;;;;;;;13.55;4.95;;;12.60;99.90;;;;;;5114784;28;20195;-83
2023/05/24 07:30:17;;;;;;;14.18;5.72;;;12.70;99.90;;;;;;5102723;28;20289;-85
2023/05/24 07:32:45;;;;;;;9.10;5.22;;;12.40;99.90;;;;;;5110127;28;20199;-83
2023/05/24 07:35:13;;;;;;;12.07;4.53;;;12.40;99.90;;;;;;5103667;28;20208;-82
2023/05/24 07:37:41;;;;;;;13.80;5.20;;;12.50;99.90;;;;;;5115673;28;20214;-81
2023/05/24 07:40:10;;;;;;;17.45;5.38;;;12.50;99.90;;;;;;5112365;28;20225;-81
2023/05/24 07:42:40;;;;;;;16.17;4.85;;;12.50;99.90;;;;;;5117346;28;20208;-81
2023/05/24 07:45:09;;;;;;;14.15;5.10;;;12.30;99.90;;;;;;5101673;28;20197;-81
2023/05/24 07:47:37;;;;;;;12.95;5.13;;;12.40;99.90;;;;;;5105985;28;20558;-81
2023/05/24 07:50:05;;;;;;;13.85;5.32;;;12.50;99.90;;;;;;5109292;27;20222;-81
2023/05/24 07:52:33;;;;;;;10.85;4.80;;;12.60;99.90;;;;;;5140548;27;20683;-81
2023/05/24 07:55:00;;;;;;;9.65;4.55;;;12.60;99.90;;;;;;5112098;27;20189;-81
2023/05/24 07:57:28;;;;;;;11.77;4.90;;;12.80;99.90;;;;;;5110816;28;20200;-81
2023/05/24 07:59:57;;;;;;;9.52;4.47;;;12.60;99.90;;;;;;5115690;28;20224;-81
2023/05/24 08:02:25;;;;;;;16.65;5.10;;;12.70;99.90;;;;;;5108144;28;20208;-81
2023/05/24 08:04:52;;;;;;;11.13;4.55;;;12.70;99.90;;;;;;5117646;28;20200;-81
2023/05/24 08:07:21;;;;;;;14.20;4.80;;;12.60;99.90;;;;;;5113336;28;20200;-81
2023/05/24 08:09:48;;;;;;;19.15;5.30;;;12.50;99.90;;;;;;5114976;28;20218;-81
2023/05/24 08:12:16;;;;;;;13.88;4.93;;;12.60;99.90;;;;;;5114031;28;20197;-81
2023/05/24 08:14:43;;;;;;;18.75;5.97;;;12.50;99.90;;;;;;5114877;28;20703;-81
2023/05/24 08:17:12;;;;;;;10.25;4.82;;;12.60;99.90;;;;;;5114228;28;20192;-81
2023/05/24 08:19:39;;;;;;;16.42;4.65;;;12.70;99.90;;;;;;5117171;28;20220;-81
2023/05/24 08:22:07;;;;;;;6.53;4.28;;;12.80;99.90;;;;;;5117997;28;20200;-81
2023/05/24 08:24:34;;;;;;;9.88;4.75;;;12.90;99.90;;;;;;5104084;28;20204;-81
2023/05/24 08:27:03;;;;;;;18.08;5.57;;;12.90;99.90;;;;;;5100266;28;20205;-81
2023/05/24 08:29:31;;;;;;;17.88;6.07;;;12.90;99.90;;;;;;5113240;28;20213;-81
2023/05/24 08:31:58;;;;;;;13.65;4.88;;;12.80;99.90;;;;;;5116663;28;20203;-81
2023/05/24 08:34:27;;;;;;;11.73;5.00;;;12.80;99.90;;;;;;5103166;28;20205;-81
2023/05/24 08:36:54;;;;;;;9.40;4.53;;;12.80;99.90;;;;;;5109410;28;20205;-81
2023/05/24 08:39:22;;;;;;;12.00;5.20;;;12.80;99.90;;;;;;5110940;28;20231;-81
2023/05/24 08:41:50;;;;;;;14.07;4.50;;;13.00;99.90;;;;;;5102516;28;20197;-79
2023/05/24 08:44:19;;;;;;;11.25;4.57;;;13.10;99.90;;;;;;5112898;28;20681;-79
2023/05/24 08:46:47;;;;;;;9.55;3.75;;;13.20;99.90;;;;;;5111150;28;20192;-79
2023/05/24 08:49:15;;;;;;;12.48;4.25;;;13.10;99.90;;;;;;5115101;28;20220;-79
2023/05/24 08:51:44;;;;;;;13.30;3.88;;;13.10;99.90;;;;;;5116286;28;20215;-79
2023/05/24 08:54:13;;;;;;;12.00;3.65;;;13.00;99.90;;;;;;5104213;28;20201;-79
2023/05/24 08:56:41;;;;;;;10.63;3.47;;;13.20;99.90;;;;;;5114328;28;20207;-79
2023/05/24 08:59:09;;;;;;;11.65;4.32;;;13.20;99.90;;;;;;5117451;27;20212;-79
2023/05/24 09:01:40;;;;;;;10.15;4.78;;;13.20;99.90;;;;;;5106911;28;20192;-79
2023/05/24 09:04:08;;;;;;;15.27;4.68;;;13.30;99.90;;;;;;5098389;28;20201;-79
2023/05/24 09:06:36;;;;;;;11.13;4.82;;;13.40;99.90;;;;;;5108624;28;20196;-79
2023/05/24 09:09:08;;;;;;;14.07;4.43;;;13.40;99.90;;;;;;5107976;28;20213;-79
2023/05/24 09:11:36;;;;;;;11.63;3.92;;;13.60;99.90;;;;;;5112274;28;20201;-79
2023/05/24 09:14:04;;;;;;;10.30;4.18;;;13.60;99.90;;;;;;5116783;28;20203;-80
2023/05/24 09:16:31;;;;;;;13.98;4.53;;;13.80;99.90;;;;;;5114165;28;20197;-80
2023/05/24 09:19:00;;;;;;;10.20;3.80;;;14.00;99.90;;;;;;5108634;28;20228;-79
2023/05/24 09:21:29;;;;;;;13.18;4.25;;;13.90;99.90;;;;;;5127819;28;20200;-79
2023/05/24 09:23:57;;;;;;;10.80;3.90;;;13.80;99.90;;;;;;5122563;28;20214;-79
2023/05/24 09:26:29;;;;;;;16.45;4.45;;;13.60;99.90;;;;;;5113049;28;20634;-79
2023/05/24 09:28:57;;;;;;;8.73;3.47;;;13.30;99.90;;;;;;5124776;28;20208;-79
2023/05/24 09:31:33;;;;;;;10.15;3.83;;;13.40;99.90;;;;;;5109821;28;20598;-79
2023/05/24 09:34:01;;;;;;;8.05;3.92;;;13.30;99.90;;;;;;5114411;28;20203;-79
2023/05/24 09:36:29;;;;;;;9.48;3.88;;;13.40;99.90;;;;;;5117236;28;20199;-79
2023/05/24 09:39:08;;;;;;;11.18;4.03;;;13.40;99.90;;;;;;5117795;28;20220;-79
2023/05/24 09:41:37;;;;;;;14.05;3.42;;;13.40;99.90;;;;;;5098074;28;20664;-79
2023/05/24 09:44:06;;;;;;;14.73;4.03;;;13.50;99.90;;;;;;5101375;28;20196;-80
2023/05/24 09:46:38;;;;;;;8.60;4.30;;;13.60;99.90;;;;;;5103542;28;20661;-80
2023/05/24 09:49:07;;;;;;;13.18;4.07;;;13.90;99.90;;;;;;5112467;27;20216;-81
2023/05/24 09:51:37;;;;;;;10.52;3.50;;;13.80;99.90;;;;;;5103483;28;20200;-81
2023/05/24 09:54:06;;;;;;;12.60;3.88;;;14.00;99.90;;;;;;5105341;28;20188;-81
2023/05/24 09:56:39;;;;;;;9.75;3.78;;;14.20;99.90;;;;;;5105829;28;20197;-80
2023/05/24 09:59:08;;;;;;;11.73;3.65;;;14.30;99.90;;;;;;5102642;28;20231;-81
2023/05/24 10:01:36;;;;;;;8.25;3.95;;;14.30;99.90;;;;;;5112604;28;20559;-81
2023/05/24 10:04:05;;;;;;;16.85;4.85;;;14.20;99.90;;;;;;5099705;28;20205;-80
2023/05/24 10:06:37;;;;;;;8.40;3.60;;;14.60;99.90;;;;;;5109392;28;20207;-81
2023/05/24 10:09:06;;;;;;;12.40;4.28;;;14.60;99.90;;;;;;5114770;28;20215;-81
2023/05/24 10:11:36;;;;;;;11.77;4.45;;;14.60;99.90;;;;;;5122042;28;20207;-81
2023/05/24 10:14:06;;;;;;;12.75;3.80;;;14.30;99.70;;;;;;5111391;28;20200;-81
2023/05/24 10:16:33;;;;;;;8.43;3.25;;;14.10;99.20;;;;;;5118062;28;20653;-79
2023/05/24 10:19:01;;;;;;;6.18;3.42;;;14.10;99.90;;;;;;5113285;28;20571;-80
2023/05/24 10:21:32;;;;;;;10.65;3.72;;;14.20;99.90;;;;;;5105750;28;20193;-80
2023/05/24 10:24:05;;;;;;;12.82;4.45;;;14.00;99.60;;;;;;5111496;28;20197;-81
2023/05/24 10:26:33;;;;;;;11.25;3.88;;;14.00;99.10;;;;;;5107373;28;20200;-81
2023/05/24 10:29:07;;;;;;;9.27;3.70;;;14.00;99.30;;;;;;5107654;28;20718;-81
2023/05/24 10:31:38;;;;;;;6.07;2.80;;;14.10;99.80;;;;;;5111634;28;20205;-80
2023/05/24 10:34:08;;;;;;;13.05;3.60;;;14.10;99.90;;;;;;5106664;28;20693;-80
2023/05/24 10:36:35;;;;;;;8.20;3.55;;;14.20;99.90;;;;;;5106446;28;20188;-80
2023/05/24 10:39:03;;;;;;;11.05;4.00;;;14.40;99.60;;;;;;5108625;28;20220;-80
2023/05/24 10:41:39;;;;;;;10.48;4.05;;;14.50;99.50;;;;;;5104011;28;20204;-80
2023/05/24 10:44:13;;;;;;;9.00;3.70;;;14.40;99.40;;;;;;5111687;28;20184;-80
2023/05/24 10:50:22;;;;;;;11.35;3.10;;;15.10;99.90;;;;;;5019951;28;20217;-80
2023/05/24 10:53:11;;;;;;;7.63;3.13;;;15.70;96.60;;;;;;5103646;28;20192;-80
2023/05/24 10:55:52;;;;;;;9.48;3.72;;;15.40;96.60;;;;;;5111455;28;20180;-80
2023/05/24 10:58:20;;;;;;;8.00;3.20;;;15.00;96.80;;;;;;5112541;28;20217;-80
2023/05/24 11:00:52;;;;;;;10.45;3.92;;;14.90;96.10;;;;;;5111815;28;20235;-80
2023/05/24 11:03:23;;;;;;;13.20;3.33;;;14.70;96.40;;;;;;5114585;28;20207;-79
2023/05/24 11:05:53;;;;;;;11.93;3.72;;;14.40;97.60;;;;;;5107973;28;20659;-80
2023/05/24 11:08:25;;;;;;;10.38;3.58;;;14.60;98.40;;;;;;5100595;28;20232;-79
2023/05/24 11:11:11;;;;;;;7.80;3.78;;;14.40;97.70;;;;;;5106401;28;20657;-80
2023/05/24 11:13:40;;;;;;;10.50;3.72;;;14.00;98.60;;;;;;5102634;28;20201;-81
2023/05/24 11:16:10;;;;;;;8.52;3.50;;;14.20;99.20;;;;;;5114115;28;20208;-80
2023/05/24 11:18:38;;;;;;;10.85;3.88;;;14.10;99.40;;;;;;5108929;28;20212;-82
2023/05/24 11:21:06;;;;;;;11.32;3.63;;;14.10;99.90;;;;;;5111376;28;20216;-82
2023/05/24 11:23:34;;;;;;;10.07;3.72;;;14.10;99.90;;;;;;5111049;28;20196;-82
2023/05/24 11:26:02;;;;;;;12.15;3.53;;;14.10;99.90;;;;;;5121633;28;20200;-81
2023/05/24 11:28:31;;;;;;;9.75;3.65;;;14.00;99.90;;;;;;5112055;27;20235;-82
2023/05/24 11:31:09;;;;;;;13.68;4.65;;;14.00;99.90;;;;;;5110037;27;20208;-80
2023/05/24 11:33:42;;;;;;;9.98;3.80;;;14.00;99.90;;;;;;5108763;28;20192;-80
2023/05/24 11:36:10;;;;;;;11.93;4.00;;;13.90;99.90;;;;;;5103499;28;20733;-81
2023/05/24 11:38:38;;;;;;;10.10;3.15;;;14.00;99.90;;;;;;5115098;27;20208;-81
2023/05/24 11:41:07;;;;;;;14.80;3.67;;;14.00;99.90;;;;;;5115566;28;20216;-81
2023/05/24 11:43:35;;;;;;;9.82;3.70;;;14.10;99.90;;;;;;5108161;28;20201;-81
2023/05/24 11:46:02;;;;;;;8.80;3.65;;;14.10;99.90;;;;;;5101370;28;20203;-81
2023/05/24 11:48:32;;;;;;;10.68;3.95;;;14.20;99.90;;;;;;5107073;28;20223;-81
2023/05/24 11:50:59;;;;;;;8.57;4.00;;;14.20;99.90;;;;;;5102949;28;20220;-81
2023/05/24 11:53:27;;;;;;;10.45;3.50;;;14.20;99.90;;;;;;5102815;28;20196;-81
2023/05/24 11:55:55;;;;;;;9.25;3.92;;;14.10;99.90;;;;;;5101034;28;20773;-81
2023/05/24 11:58:25;;;;;;;9.88;4.05;;;14.10;99.90;;;;;;5095988;28;20221;-81
2023/05/24 12:00:53;;;;;;;7.22;3.47;;;14.10;99.90;;;;;;5104776;28;20216;-81
2023/05/24 12:03:20;;;;;;;12.50;4.18;;;14.30;99.90;;;;;;5105845;28;20201;-81
2023/05/24 12:05:50;;;;;;;11.10;4.40;;;14.40;99.90;;;;;;5098921;28;20663;-81
2023/05/24 12:08:18;;;;;;;9.05;3.97;;;14.30;99.90;;;;;;5103144;28;20221;-81
2023/05/24 12:10:50;;;;;;;10.32;3.78;;;14.40;99.90;;;;;;5105803;28;21915;-80
2023/05/24 12:13:23;;;;;;;11.73;4.30;;;14.40;99.90;;;;;;5097189;28;20203;-80
2023/05/24 12:15:51;;;;;;;11.77;4.13;;;14.40;99.90;;;;;;5119769;27;20192;-80
2023/05/24 12:18:19;;;;;;;12.43;4.47;;;14.40;99.90;;;;;;5105765;28;20262;-80
2023/05/24 12:20:47;;;;;;;12.13;3.80;;;14.50;99.90;;;;;;5097892;28;20284;-80
2023/05/24 12:23:16;;;;;;;8.43;3.20;;;14.60;99.90;;;;;;5103412;28;20199;-80
2023/05/24 12:25:44;;;;;;;11.32;4.40;;;14.80;99.90;;;;;;5101859;28;20201;-80
2023/05/24 12:28:13;;;;;;;8.45;3.92;;;14.90;99.90;;;;;;5104659;28;20228;-80
2023/05/24 12:30:41;;;;;;;10.45;4.13;;;14.80;99.90;;;;;;5101980;28;20197;-80
2023/05/24 12:33:10;;;;;;;8.18;3.80;;;15.00;99.90;;;;;;5100027;28;20659;-80
2023/05/24 12:35:38;;;;;;;9.43;3.50;;;14.90;99.80;;;;;;5109927;28;20192;-80
2023/05/24 12:38:09;;;;;;;7.53;3.30;;;15.10;98.90;;;;;;5101004;28;20205;-81
2023/05/24 12:40:42;;;;;;;8.50;3.80;;;15.10;98.80;;;;;;5107597;28;20216;-80
2023/05/24 12:43:10;;;;;;;11.68;4.63;;;15.20;99.00;;;;;;5107391;28;20193;-80
2023/05/24 12:45:38;;;;;;;8.32;3.50;;;15.10;98.40;;;;;;5100643;28;20197;-80
2023/05/24 12:48:06;;;;;;;12.00;4.13;;;15.00;98.90;;;;;;5094736;28;20570;-80
2023/05/24 12:50:33;;;;;;;7.80;3.97;;;15.00;99.50;;;;;;5106168;28;20200;-80
2023/05/24 12:53:01;;;;;;;6.60;3.78;;;15.10;99.20;;;;;;5102625;28;20200;-80
2023/05/24 12:55:29;;;;;;;8.00;3.95;;;15.10;99.50;;;;;;5100276;28;20200;-80
2023/05/24 12:58:00;;;;;;;9.80;3.53;;;15.30;99.20;;;;;;5111627;28;20203;-80
2023/05/24 13:00:29;;;;;;;9.45;4.57;;;15.20;99.80;;;;;;5104068;28;20212;-80
2023/05/24 13:02:58;;;;;;;9.82;4.03;;;15.40;99.40;;;;;;5106569;28;20203;-80